sensor_id;sensor_type;location;lat;lon;timestamp;pressure;altitude;pressure_sealevel;temperature;humidity
9415;BME280;4746;35.664;139.738;2023-11-19T00:00:20;99864.59;;;17.16;32.89
9415;BME280;4746;35.664;139.738;2023-11-19T00:02:47;99877.44;;;17.20;32.44
9415;BME280;4746;35.664;139.738;2023-11-19T00:05:15;99873.03;;;17.24;32.46
9415;BME280;4746;35.664;139.738;2023-11-19T00:07:42;99869.53;;;17.25;32.55
9415;BME280;4746;35.664;139.738;2023-11-19T00:10:12;99880.66;;;17.31;32.65
9415;BME280;4746;35.664;139.738;2023-11-19T00:12:45;99883.91;;;17.38;32.58
9415;BME280;4746;35.664;139.738;2023-11-19T00:15:17;99887.25;;;17.42;32.41
9415;BME280;4746;35.664;139.738;2023-11-19T00:17:46;99890.59;;;17.46;32.27
9415;BME280;4746;35.664;139.738;2023-11-19T00:20:21;99882.63;;;17.53;31.96
9415;BME280;4746;35.664;139.738;2023-11-19T00:22:51;99895.47;;;17.58;31.60
9415;BME280;4746;35.664;139.738;2023-11-19T00:25:20;99904.84;;;17.62;31.20
9415;BME280;4746;35.664;139.738;2023-11-19T00:27:52;99905.78;;;17.61;31.21
9415;BME280;4746;35.664;139.738;2023-11-19T00:30:20;99922.09;;;17.64;31.20
9415;BME280;4746;35.664;139.738;2023-11-19T00:32:50;99915.97;;;17.67;30.57
9415;BME280;4746;35.664;139.738;2023-11-19T00:35:19;99922.72;;;17.72;30.90
9415;BME280;4746;35.664;139.738;2023-11-19T00:37:46;99919.25;;;17.73;30.95
9415;BME280;4746;35.664;139.738;2023-11-19T00:40:14;99926.75;;;17.82;31.03
9415;BME280;4746;35.664;139.738;2023-11-19T00:42:44;99930.09;;;17.87;30.80
9415;BME280;4746;35.664;139.738;2023-11-19T00:45:12;99914.41;;;17.92;31.12
9415;BME280;4746;35.664;139.738;2023-11-19T00:47:39;99902.94;;;18.00;30.93
9415;BME280;4746;35.664;139.738;2023-11-19T00:50:08;99906.16;;;18.08;31.23
9415;BME280;4746;35.664;139.738;2023-11-19T00:52:40;99907.78;;;18.12;30.84
9415;BME280;4746;35.664;139.738;2023-11-19T00:55:08;99914.66;;;18.13;30.54
9415;BME280;4746;35.664;139.738;2023-11-19T00:57:36;99927.50;;;18.19;30.97
9415;BME280;4746;35.664;139.738;2023-11-19T01:00:05;99919.41;;;18.29;31.13
9415;BME280;4746;35.664;139.738;2023-11-19T01:02:59;99923.38;;;18.41;30.85
9415;BME280;4746;35.664;139.738;2023-11-19T01:05:26;99921.59;;;18.43;30.66
9415;BME280;4746;35.664;139.738;2023-11-19T01:07:55;99922.31;;;18.48;30.52
9415;BME280;4746;35.664;139.738;2023-11-19T01:10:25;99918.53;;;18.59;30.38
9415;BME280;4746;35.664;139.738;2023-11-19T01:12:53;99922.59;;;18.68;30.77
9415;BME280;4746;35.664;139.738;2023-11-19T01:15:21;99924.09;;;18.75;30.36
9415;BME280;4746;35.664;139.738;2023-11-19T01:17:49;99918.81;;;18.78;29.98
9415;BME280;4746;35.664;139.738;2023-11-19T01:20:17;99918.69;;;18.82;30.51
9415;BME280;4746;35.664;139.738;2023-11-19T01:22:45;99926.34;;;18.86;29.79
9415;BME280;4746;35.664;139.738;2023-11-19T01:25:12;99915.94;;;18.86;30.05
9415;BME280;4746;35.664;139.738;2023-11-19T01:27:40;99909.75;;;18.90;29.79
9415;BME280;4746;35.664;139.738;2023-11-19T01:30:09;99905.88;;;19.03;30.43
9415;BME280;4746;35.664;139.738;2023-11-19T01:32:40;99900.31;;;19.15;30.08
9415;BME280;4746;35.664;139.738;2023-11-19T01:35:08;99892.16;;;19.26;29.92
9415;BME280;4746;35.664;139.738;2023-11-19T01:37:37;99886.41;;;19.42;29.95
9415;BME280;4746;35.664;139.738;2023-11-19T01:40:05;99880.00;;;19.52;29.71
9415;BME280;4746;35.664;139.738;2023-11-19T01:42:39;99877.78;;;19.66;29.27
9415;BME280;4746;35.664;139.738;2023-11-19T01:45:07;99875.91;;;19.69;28.97
9415;BME280;4746;35.664;139.738;2023-11-19T01:47:36;99866.84;;;19.81;28.88
9415;BME280;4746;35.664;139.738;2023-11-19T01:50:07;99867.16;;;19.96;28.93
9415;BME280;4746;35.664;139.738;2023-11-19T01:52:37;99865.97;;;20.05;28.88
9415;BME280;4746;35.664;139.738;2023-11-19T01:55:07;99856.81;;;20.18;28.66
9415;BME280;4746;35.664;139.738;2023-11-19T01:57:38;99857.22;;;20.30;28.72
9415;BME280;4746;35.664;139.738;2023-11-19T02:00:09;99847.19;;;20.42;28.77
9415;BME280;4746;35.664;139.738;2023-11-19T02:02:42;99843.16;;;20.57;28.21
9415;BME280;4746;35.664;139.738;2023-11-19T02:05:11;99844.22;;;20.74;27.84
9415;BME280;4746;35.664;139.738;2023-11-19T02:07:40;99829.91;;;20.84;27.64
9415;BME280;4746;35.664;139.738;2023-11-19T02:10:08;99820.44;;;21.03;28.08
9415;BME280;4746;35.664;139.738;2023-11-19T02:12:41;99821.09;;;21.28;27.96
9415;BME280;4746;35.664;139.738;2023-11-19T02:15:12;99809.53;;;21.55;27.61
9415;BME280;4746;35.664;139.738;2023-11-19T02:17:40;99799.72;;;21.79;27.05
9415;BME280;4746;35.664;139.738;2023-11-19T02:20:09;99802.13;;;22.02;27.08
9415;BME280;4746;35.664;139.738;2023-11-19T02:22:38;99803.13;;;22.18;26.66
9415;BME280;4746;35.664;139.738;2023-11-19T02:25:29;99788.34;;;22.37;26.97
9415;BME280;4746;35.664;139.738;2023-11-19T02:28:01;99775.72;;;22.45;26.74
9415;BME280;4746;35.664;139.738;2023-11-19T02:30:29;99771.63;;;22.58;26.18
9415;BME280;4746;35.664;139.738;2023-11-19T02:33:01;99772.56;;;22.74;25.79
9415;BME280;4746;35.664;139.738;2023-11-19T02:35:36;99771.44;;;22.79;25.73
9415;BME280;4746;35.664;139.738;2023-11-19T02:38:11;99763.19;;;22.87;26.00
9415;BME280;4746;35.664;139.738;2023-11-19T02:40:42;99774.59;;;23.03;25.84
9415;BME280;4746;35.664;139.738;2023-11-19T02:43:10;99766.78;;;23.19;26.29
9415;BME280;4746;35.664;139.738;2023-11-19T02:45:37;99765.66;;;23.40;26.02
9415;BME280;4746;35.664;139.738;2023-11-19T02:48:05;99766.22;;;23.62;26.28
9415;BME280;4746;35.664;139.738;2023-11-19T02:50:33;99765.16;;;23.83;25.77
9415;BME280;4746;35.664;139.738;2023-11-19T02:53:03;99768.88;;;24.10;25.11
9415;BME280;4746;35.664;139.738;2023-11-19T02:55:31;99753.84;;;24.29;25.48
9415;BME280;4746;35.664;139.738;2023-11-19T02:58:08;99741.84;;;24.55;25.09
9415;BME280;4746;35.664;139.738;2023-11-19T03:00:50;99751.78;;;24.80;24.55
9415;BME280;4746;35.664;139.738;2023-11-19T03:03:28;99732.25;;;24.99;24.59
9415;BME280;4746;35.664;139.738;2023-11-19T03:06:08;99729.06;;;25.10;24.28
9415;BME280;4746;35.664;139.738;2023-11-19T03:08:36;99722.22;;;25.21;24.10
9415;BME280;4746;35.664;139.738;2023-11-19T03:11:04;99721.88;;;25.41;24.02
9415;BME280;4746;35.664;139.738;2023-11-19T03:13:33;99726.72;;;25.61;24.06
9415;BME280;4746;35.664;139.738;2023-11-19T03:16:00;99711.38;;;25.83;23.95
9415;BME280;4746;35.664;139.738;2023-11-19T03:18:28;99713.56;;;26.16;23.38
9415;BME280;4746;35.664;139.738;2023-11-19T03:20:55;99716.78;;;26.34;22.82
9415;BME280;4746;35.664;139.738;2023-11-19T03:23:25;99711.63;;;26.32;22.78
9415;BME280;4746;35.664;139.738;2023-11-19T03:25:56;99718.53;;;26.47;22.74
9415;BME280;4746;35.664;139.738;2023-11-19T03:28:25;99714.56;;;26.93;22.16
9415;BME280;4746;35.664;139.738;2023-11-19T03:30:52;99699.84;;;27.52;21.76
9415;BME280;4746;35.664;139.738;2023-11-19T03:33:20;99701.50;;;28.03;22.06
9415;BME280;4746;35.664;139.738;2023-11-19T03:35:47;99697.97;;;28.51;21.57
9415;BME280;4746;35.664;139.738;2023-11-19T03:38:15;99705.09;;;28.95;20.86
9415;BME280;4746;35.664;139.738;2023-11-19T03:40:42;99702.13;;;29.00;20.56
9415;BME280;4746;35.664;139.738;2023-11-19T03:43:10;99692.81;;;28.83;20.78
9415;BME280;4746;35.664;139.738;2023-11-19T03:45:39;99691.41;;;28.67;20.81
9415;BME280;4746;35.664;139.738;2023-11-19T03:48:07;99687.97;;;30.21;19.60
9415;BME280;4746;35.664;139.738;2023-11-19T03:50:34;99683.31;;;33.12;17.42
9415;BME280;4746;35.664;139.738;2023-11-19T03:53:02;99681.53;;;35.66;16.61
9415;BME280;4746;35.664;139.738;2023-11-19T03:55:31;99678.28;;;37.41;15.21
9415;BME280;4746;35.664;139.738;2023-11-19T03:57:59;99678.44;;;38.62;14.52
9415;BME280;4746;35.664;139.738;2023-11-19T04:00:27;99679.13;;;39.52;14.20
9415;BME280;4746;35.664;139.738;2023-11-19T04:02:54;99676.81;;;40.42;13.11
9415;BME280;4746;35.664;139.738;2023-11-19T04:05:22;99670.78;;;41.02;12.70
9415;BME280;4746;35.664;139.738;2023-11-19T04:07:49;99677.47;;;41.67;12.42
9415;BME280;4746;35.664;139.738;2023-11-19T04:10:17;99667.41;;;42.29;11.64
9415;BME280;4746;35.664;139.738;2023-11-19T04:12:45;99661.72;;;42.77;11.66
9415;BME280;4746;35.664;139.738;2023-11-19T04:15:15;99662.13;;;43.06;10.68
9415;BME280;4746;35.664;139.738;2023-11-19T04:17:43;99669.13;;;43.65;10.27
9415;BME280;4746;35.664;139.738;2023-11-19T04:20:11;99666.03;;;44.18;10.34
9415;BME280;4746;35.664;139.738;2023-11-19T04:22:40;99654.63;;;44.78;9.68
9415;BME280;4746;35.664;139.738;2023-11-19T04:25:09;99648.53;;;45.31;9.17
9415;BME280;4746;35.664;139.738;2023-11-19T04:27:37;99640.44;;;45.85;9.07
9415;BME280;4746;35.664;139.738;2023-11-19T04:30:06;99638.13;;;46.18;8.65
9415;BME280;4746;35.664;139.738;2023-11-19T04:32:38;99622.59;;;46.54;8.23
9415;BME280;4746;35.664;139.738;2023-11-19T04:35:06;99619.31;;;46.63;8.46
9415;BME280;4746;35.664;139.738;2023-11-19T04:37:34;99615.56;;;46.87;8.39
9415;BME280;4746;35.664;139.738;2023-11-19T04:40:02;99611.34;;;47.14;7.81
9415;BME280;4746;35.664;139.738;2023-11-19T04:42:30;99606.81;;;47.54;7.78
9415;BME280;4746;35.664;139.738;2023-11-19T04:44:59;99600.88;;;47.80;7.78
9415;BME280;4746;35.664;139.738;2023-11-19T04:47:26;99608.75;;;48.09;7.25
9415;BME280;4746;35.664;139.738;2023-11-19T04:49:54;99597.13;;;48.41;7.53
9415;BME280;4746;35.664;139.738;2023-11-19T04:52:21;99597.75;;;48.76;7.07
9415;BME280;4746;35.664;139.738;2023-11-19T04:54:48;99599.56;;;49.03;6.79
9415;BME280;4746;35.664;139.738;2023-11-19T04:57:17;99592.63;;;48.96;6.97
9415;BME280;4746;35.664;139.738;2023-11-19T04:59:44;99599.91;;;48.74;6.75
9415;BME280;4746;35.664;139.738;2023-11-19T05:02:13;99595.53;;;48.89;7.28
9415;BME280;4746;35.664;139.738;2023-11-19T05:04:45;99583.94;;;48.99;6.95
9415;BME280;4746;35.664;139.738;2023-11-19T05:07:13;99586.69;;;49.37;7.08
9415;BME280;4746;35.664;139.738;2023-11-19T05:09:41;99575.81;;;49.58;7.14
9415;BME280;4746;35.664;139.738;2023-11-19T05:12:10;99577.00;;;49.45;6.78
9415;BME280;4746;35.664;139.738;2023-11-19T05:14:39;99583.09;;;49.52;7.10
9415;BME280;4746;35.664;139.738;2023-11-19T05:17:06;99580.41;;;49.36;7.07
9415;BME280;4746;35.664;139.738;2023-11-19T05:19:36;99574.50;;;49.23;7.00
9415;BME280;4746;35.664;139.738;2023-11-19T05:22:03;99570.72;;;49.24;7.10
9415;BME280;4746;35.664;139.738;2023-11-19T05:24:34;99574.03;;;49.26;7.27
9415;BME280;4746;35.664;139.738;2023-11-19T05:27:03;99570.38;;;49.58;7.09
9415;BME280;4746;35.664;139.738;2023-11-19T05:29:33;99570.75;;;49.66;7.36
9415;BME280;4746;35.664;139.738;2023-11-19T05:32:00;99581.44;;;49.51;7.33
9415;BME280;4746;35.664;139.738;2023-11-19T05:34:28;99580.56;;;49.67;7.20
9415;BME280;4746;35.664;139.738;2023-11-19T05:36:56;99586.31;;;49.71;7.20
9415;BME280;4746;35.664;139.738;2023-11-19T05:39:24;99582.97;;;49.85;7.22
9415;BME280;4746;35.664;139.738;2023-11-19T05:41:52;99584.31;;;49.83;7.07
9415;BME280;4746;35.664;139.738;2023-11-19T05:44:19;99586.38;;;49.97;7.13
9415;BME280;4746;35.664;139.738;2023-11-19T05:46:47;99577.63;;;49.95;6.45
9415;BME280;4746;35.664;139.738;2023-11-19T05:49:14;99581.94;;;49.91;6.05
9415;BME280;4746;35.664;139.738;2023-11-19T05:51:42;99583.19;;;50.05;6.67
9415;BME280;4746;35.664;139.738;2023-11-19T05:54:10;99581.00;;;50.28;6.66
9415;BME280;4746;35.664;139.738;2023-11-19T05:56:38;99591.34;;;50.26;6.49
9415;BME280;4746;35.664;139.738;2023-11-19T05:59:05;99584.94;;;50.16;6.16
9415;BME280;4746;35.664;139.738;2023-11-19T06:01:42;99589.34;;;49.96;6.56
9415;BME280;4746;35.664;139.738;2023-11-19T06:04:09;99580.41;;;50.00;6.29
9415;BME280;4746;35.664;139.738;2023-11-19T06:06:37;99597.19;;;49.87;5.86
9415;BME280;4746;35.664;139.738;2023-11-19T06:09:04;99588.13;;;49.60;6.19
9415;BME280;4746;35.664;139.738;2023-11-19T06:11:34;99586.16;;;49.56;6.24
9415;BME280;4746;35.664;139.738;2023-11-19T06:14:03;99589.41;;;49.53;6.12
9415;BME280;4746;35.664;139.738;2023-11-19T06:16:32;99593.03;;;49.42;5.87
9415;BME280;4746;35.664;139.738;2023-11-19T06:19:00;99601.88;;;49.33;6.08
9415;BME280;4746;35.664;139.738;2023-11-19T06:21:27;99610.53;;;49.25;6.04
9415;BME280;4746;35.664;139.738;2023-11-19T06:23:54;99610.38;;;48.98;6.38
9415;BME280;4746;35.664;139.738;2023-11-19T06:26:22;99611.78;;;48.68;6.16
9415;BME280;4746;35.664;139.738;2023-11-19T06:28:50;99617.31;;;48.45;6.28
9415;BME280;4746;35.664;139.738;2023-11-19T06:31:17;99609.97;;;48.29;6.43
9415;BME280;4746;35.664;139.738;2023-11-19T06:33:46;99617.97;;;48.19;6.19
9415;BME280;4746;35.664;139.738;2023-11-19T06:36:16;99606.00;;;47.92;6.34
9415;BME280;4746;35.664;139.738;2023-11-19T06:38:44;99605.81;;;47.71;6.62
9415;BME280;4746;35.664;139.738;2023-11-19T06:41:12;99608.66;;;47.65;6.17
9415;BME280;4746;35.664;139.738;2023-11-19T06:43:39;99612.25;;;47.42;6.53
9415;BME280;4746;35.664;139.738;2023-11-19T06:46:15;99613.44;;;46.89;6.78
9415;BME280;4746;35.664;139.738;2023-11-19T06:48:44;99605.72;;;46.52;6.51
9415;BME280;4746;35.664;139.738;2023-11-19T06:51:12;99605.75;;;46.23;6.91
9415;BME280;4746;35.664;139.738;2023-11-19T06:53:40;99606.72;;;45.45;6.98
9415;BME280;4746;35.664;139.738;2023-11-19T06:56:22;99616.03;;;43.08;8.28
9415;BME280;4746;35.664;139.738;2023-11-19T06:58:51;99613.91;;;40.36;9.38
9415;BME280;4746;35.664;139.738;2023-11-19T07:01:19;99621.44;;;38.23;10.18
9415;BME280;4746;35.664;139.738;2023-11-19T07:03:47;99620.22;;;36.47;10.87
9415;BME280;4746;35.664;139.738;2023-11-19T07:06:15;99625.88;;;34.95;12.26
9415;BME280;4746;35.664;139.738;2023-11-19T07:08:43;99622.13;;;33.67;12.59
9415;BME280;4746;35.664;139.738;2023-11-19T07:11:14;99621.19;;;32.57;13.75
9415;BME280;4746;35.664;139.738;2023-11-19T07:13:43;99629.41;;;31.68;14.07
9415;BME280;4746;35.664;139.738;2023-11-19T07:16:15;99636.34;;;30.89;14.71
9415;BME280;4746;35.664;139.738;2023-11-19T07:18:45;99630.19;;;30.17;15.05
9415;BME280;4746;35.664;139.738;2023-11-19T07:21:12;99631.75;;;29.55;15.90
9415;BME280;4746;35.664;139.738;2023-11-19T07:23:40;99636.13;;;29.00;16.17
9415;BME280;4746;35.664;139.738;2023-11-19T07:26:08;99644.34;;;28.50;16.42
9415;BME280;4746;35.664;139.738;2023-11-19T07:28:36;99654.06;;;28.03;16.76
9415;BME280;4746;35.664;139.738;2023-11-19T07:31:04;99648.69;;;27.56;17.38
9415;BME280;4746;35.664;139.738;2023-11-19T07:33:34;99656.84;;;27.16;17.79
9415;BME280;4746;35.664;139.738;2023-11-19T07:36:02;99652.91;;;26.84;18.32
9415;BME280;4746;35.664;139.738;2023-11-19T07:38:29;99657.59;;;26.55;18.32
9415;BME280;4746;35.664;139.738;2023-11-19T07:40:57;99658.81;;;26.23;19.33
9415;BME280;4746;35.664;139.738;2023-11-19T07:43:25;99658.81;;;25.96;19.28
9415;BME280;4746;35.664;139.738;2023-11-19T07:45:54;99661.13;;;25.75;19.54
9415;BME280;4746;35.664;139.738;2023-11-19T07:48:22;99651.31;;;25.50;20.02
9415;BME280;4746;35.664;139.738;2023-11-19T07:50:50;99663.97;;;25.30;20.35
9415;BME280;4746;35.664;139.738;2023-11-19T07:53:18;99664.41;;;25.09;20.64
9415;BME280;4746;35.664;139.738;2023-11-19T07:55:46;99671.56;;;24.91;20.81
9415;BME280;4746;35.664;139.738;2023-11-19T07:58:14;99671.72;;;24.74;20.85
9415;BME280;4746;35.664;139.738;2023-11-19T08:00:41;99667.66;;;24.55;20.83
9415;BME280;4746;35.664;139.738;2023-11-19T08:03:09;99683.38;;;24.40;20.87
9415;BME280;4746;35.664;139.738;2023-11-19T08:05:36;99678.06;;;24.26;21.14
9415;BME280;4746;35.664;139.738;2023-11-19T08:08:04;99684.94;;;24.13;21.05
9415;BME280;4746;35.664;139.738;2023-11-19T08:10:32;99694.50;;;23.98;21.07
9415;BME280;4746;35.664;139.738;2023-11-19T08:13:00;99698.78;;;23.84;21.36
9415;BME280;4746;35.664;139.738;2023-11-19T08:15:28;99698.59;;;23.72;21.50
9415;BME280;4746;35.664;139.738;2023-11-19T08:17:55;99697.53;;;23.59;21.52
9415;BME280;4746;35.664;139.738;2023-11-19T08:20:23;99693.81;;;23.47;22.13
9415;BME280;4746;35.664;139.738;2023-11-19T08:22:51;99697.09;;;23.35;22.76
9415;BME280;4746;35.664;139.738;2023-11-19T08:25:18;99705.47;;;23.25;23.47
9415;BME280;4746;35.664;139.738;2023-11-19T08:27:46;99702.50;;;23.15;24.07
9415;BME280;4746;35.664;139.738;2023-11-19T08:30:15;99691.53;;;23.09;25.04
9415;BME280;4746;35.664;139.738;2023-11-19T08:32:42;99709.22;;;23.04;26.37
9415;BME280;4746;35.664;139.738;2023-11-19T08:35:10;99714.72;;;22.98;27.46
9415;BME280;4746;35.664;139.738;2023-11-19T08:37:37;99714.34;;;22.89;27.78
9415;BME280;4746;35.664;139.738;2023-11-19T08:40:06;99707.72;;;22.82;28.31
9415;BME280;4746;35.664;139.738;2023-11-19T08:42:34;99710.03;;;22.71;28.64
9415;BME280;4746;35.664;139.738;2023-11-19T08:45:02;99713.25;;;22.59;28.72
9415;BME280;4746;35.664;139.738;2023-11-19T08:47:30;99718.16;;;22.48;29.22
9415;BME280;4746;35.664;139.738;2023-11-19T08:49:57;99721.19;;;22.39;30.34
9415;BME280;4746;35.664;139.738;2023-11-19T08:52:25;99723.34;;;22.31;30.50
9415;BME280;4746;35.664;139.738;2023-11-19T08:54:52;99721.13;;;22.22;30.85
9415;BME280;4746;35.664;139.738;2023-11-19T08:57:20;99721.59;;;22.13;31.28
9415;BME280;4746;35.664;139.738;2023-11-19T08:59:47;99732.22;;;22.09;32.07
9415;BME280;4746;35.664;139.738;2023-11-19T09:02:15;99730.75;;;22.03;32.42
9415;BME280;4746;35.664;139.738;2023-11-19T09:04:43;99739.91;;;21.93;32.98
9415;BME280;4746;35.664;139.738;2023-11-19T09:07:11;99740.19;;;21.87;33.61
9415;BME280;4746;35.664;139.738;2023-11-19T09:09:52;99738.38;;;21.89;33.21
9415;BME280;4746;35.664;139.738;2023-11-19T09:12:19;99742.47;;;21.76;34.94
9415;BME280;4746;35.664;139.738;2023-11-19T09:14:47;99745.28;;;21.72;35.24
9415;BME280;4746;35.664;139.738;2023-11-19T09:17:16;99746.25;;;21.69;35.91
9415;BME280;4746;35.664;139.738;2023-11-19T09:19:44;99749.22;;;21.62;36.63
9415;BME280;4746;35.664;139.738;2023-11-19T09:22:12;99759.81;;;21.59;36.90
9415;BME280;4746;35.664;139.738;2023-11-19T09:24:40;99758.22;;;21.55;36.85
9415;BME280;4746;35.664;139.738;2023-11-19T09:27:07;99756.13;;;21.43;37.97
9415;BME280;4746;35.664;139.738;2023-11-19T09:29:35;99761.75;;;21.34;38.07
9415;BME280;4746;35.664;139.738;2023-11-19T09:32:03;99767.22;;;21.28;38.71
9415;BME280;4746;35.664;139.738;2023-11-19T09:34:31;99764.16;;;21.19;39.07
9415;BME280;4746;35.664;139.738;2023-11-19T09:36:58;99765.25;;;21.13;39.59
9415;BME280;4746;35.664;139.738;2023-11-19T09:39:27;99762.88;;;21.09;39.54
9415;BME280;4746;35.664;139.738;2023-11-19T09:41:55;99756.28;;;21.00;39.69
9415;BME280;4746;35.664;139.738;2023-11-19T09:44:22;99753.97;;;20.93;40.75
9415;BME280;4746;35.664;139.738;2023-11-19T09:46:51;99749.19;;;20.84;40.80
9415;BME280;4746;35.664;139.738;2023-11-19T09:49:25;99746.56;;;20.84;40.68
9415;BME280;4746;35.664;139.738;2023-11-19T09:51:55;99757.31;;;20.77;41.18
9415;BME280;4746;35.664;139.738;2023-11-19T09:54:23;99753.78;;;20.78;41.13
9415;BME280;4746;35.664;139.738;2023-11-19T09:56:50;99747.88;;;20.73;41.88
9415;BME280;4746;35.664;139.738;2023-11-19T09:59:18;99743.66;;;20.70;41.68
9415;BME280;4746;35.664;139.738;2023-11-19T10:01:46;99742.81;;;20.70;41.77
9415;BME280;4746;35.664;139.738;2023-11-19T10:04:17;99736.00;;;20.66;41.91
9415;BME280;4746;35.664;139.738;2023-11-19T10:06:46;99727.50;;;20.62;42.28
9415;BME280;4746;35.664;139.738;2023-11-19T10:09:14;99733.88;;;20.55;42.14
9415;BME280;4746;35.664;139.738;2023-11-19T10:11:42;99722.66;;;20.53;42.61
9415;BME280;4746;35.664;139.738;2023-11-19T10:14:10;99727.06;;;20.51;42.44
9415;BME280;4746;35.664;139.738;2023-11-19T10:16:39;99730.63;;;20.50;42.68
9415;BME280;4746;35.664;139.738;2023-11-19T10:19:08;99723.72;;;20.49;42.69
9415;BME280;4746;35.664;139.738;2023-11-19T10:21:39;99727.31;;;20.45;42.88
9415;BME280;4746;35.664;139.738;2023-11-19T10:24:07;99720.44;;;20.44;43.17
9415;BME280;4746;35.664;139.738;2023-11-19T10:26:37;99722.84;;;20.49;42.85
9415;BME280;4746;35.664;139.738;2023-11-19T10:29:05;99724.63;;;20.48;43.05
9415;BME280;4746;35.664;139.738;2023-11-19T10:31:33;99718.56;;;20.48;43.02
9415;BME280;4746;35.664;139.738;2023-11-19T10:34:00;99713.41;;;20.46;43.30
9415;BME280;4746;35.664;139.738;2023-11-19T10:36:40;99708.91;;;20.50;42.75
9415;BME280;4746;35.664;139.738;2023-11-19T10:39:08;99696.22;;;20.42;43.73
9415;BME280;4746;35.664;139.738;2023-11-19T10:41:36;99697.19;;;20.40;43.00
9415;BME280;4746;35.664;139.738;2023-11-19T10:44:03;99700.63;;;20.40;43.31
9415;BME280;4746;35.664;139.738;2023-11-19T10:46:42;99698.03;;;20.40;43.04
9415;BME280;4746;35.664;139.738;2023-11-19T10:49:10;99700.06;;;20.34;43.04
9415;BME280;4746;35.664;139.738;2023-11-19T10:51:45;99697.44;;;20.34;43.58
9415;BME280;4746;35.664;139.738;2023-11-19T10:54:20;99698.41;;;20.31;43.36
9415;BME280;4746;35.664;139.738;2023-11-19T10:56:57;99691.53;;;20.30;43.35
9415;BME280;4746;35.664;139.738;2023-11-19T10:59:30;99687.34;;;20.26;43.37
9415;BME280;4746;35.664;139.738;2023-11-19T11:02:08;99692.59;;;20.25;43.33
9415;BME280;4746;35.664;139.738;2023-11-19T11:04:40;99690.06;;;20.23;43.68
9415;BME280;4746;35.664;139.738;2023-11-19T11:07:10;99685.03;;;20.19;43.50
9415;BME280;4746;35.664;139.738;2023-11-19T11:09:38;99692.91;;;20.18;43.73
9415;BME280;4746;35.664;139.738;2023-11-19T11:12:08;99689.41;;;20.19;43.51
9415;BME280;4746;35.664;139.738;2023-11-19T11:14:40;99696.41;;;20.17;44.17
9415;BME280;4746;35.664;139.738;2023-11-19T11:17:11;99690.56;;;20.12;44.05
9415;BME280;4746;35.664;139.738;2023-11-19T11:19:43;99695.75;;;20.12;44.02
9415;BME280;4746;35.664;139.738;2023-11-19T11:22:12;99703.56;;;20.12;44.12
9415;BME280;4746;35.664;139.738;2023-11-19T11:25:23;99709.44;;;20.17;43.93
9415;BME280;4746;35.664;139.738;2023-11-19T11:28:39;99705.91;;;20.18;43.78
9415;BME280;4746;35.664;139.738;2023-11-19T11:37:25;99685.50;;;20.09;44.49
9415;BME280;4746;35.664;139.738;2023-11-19T11:39:58;99682.09;;;20.07;44.75
9415;BME280;4746;35.664;139.738;2023-11-19T11:45:11;99675.59;;;20.17;44.77
9415;BME280;4746;35.664;139.738;2023-11-19T11:50:18;99677.53;;;20.12;44.83
9415;BME280;4746;35.664;139.738;2023-11-19T11:53:20;99660.94;;;20.16;44.25
9415;BME280;4746;35.664;139.738;2023-11-19T11:58:31;99666.47;;;20.07;44.17
9415;BME280;4746;35.664;139.738;2023-11-19T12:01:03;99660.56;;;20.03;44.17
9415;BME280;4746;35.664;139.738;2023-11-19T12:03:33;99654.50;;;20.03;44.56
9415;BME280;4746;35.664;139.738;2023-11-19T12:06:02;99662.44;;;20.00;44.24
9415;BME280;4746;35.664;139.738;2023-11-19T12:08:35;99668.53;;;19.99;44.16
9415;BME280;4746;35.664;139.738;2023-11-19T12:11:03;99658.25;;;19.96;44.47
9415;BME280;4746;35.664;139.738;2023-11-19T12:13:55;99662.38;;;20.01;43.69
9415;BME280;4746;35.664;139.738;2023-11-19T12:16:25;99655.75;;;19.93;44.12
9415;BME280;4746;35.664;139.738;2023-11-19T12:18:55;99654.06;;;19.92;44.30
9415;BME280;4746;35.664;139.738;2023-11-19T12:21:31;99657.34;;;19.97;43.99
9415;BME280;4746;35.664;139.738;2023-11-19T12:24:00;99657.47;;;19.94;44.18
9415;BME280;4746;35.664;139.738;2023-11-19T12:26:41;99656.31;;;20.01;43.99
9415;BME280;4746;35.664;139.738;2023-11-19T12:29:11;99655.72;;;19.94;44.29
9415;BME280;4746;35.664;139.738;2023-11-19T12:31:44;99659.06;;;19.98;44.33
9415;BME280;4746;35.664;139.738;2023-11-19T12:34:12;99664.47;;;19.92;44.19
9415;BME280;4746;35.664;139.738;2023-11-19T12:36:40;99666.19;;;19.91;44.42
9415;BME280;4746;35.664;139.738;2023-11-19T12:39:08;99667.09;;;19.90;44.68
9415;BME280;4746;35.664;139.738;2023-11-19T12:41:51;99659.31;;;19.90;44.37
9415;BME280;4746;35.664;139.738;2023-11-19T12:44:18;99668.22;;;19.85;44.91
9415;BME280;4746;35.664;139.738;2023-11-19T12:46:46;99676.09;;;19.82;45.25
9415;BME280;4746;35.664;139.738;2023-11-19T12:49:14;99688.44;;;19.77;45.29
9415;BME280;4746;35.664;139.738;2023-11-19T12:51:42;99682.47;;;19.75;45.58
9415;BME280;4746;35.664;139.738;2023-11-19T12:54:09;99690.28;;;19.75;45.77
9415;BME280;4746;35.664;139.738;2023-11-19T12:56:37;99704.41;;;19.68;45.74
9415;BME280;4746;35.664;139.738;2023-11-19T12:59:13;99692.59;;;19.59;44.80
9415;BME280;4746;35.664;139.738;2023-11-19T13:01:41;99693.22;;;19.43;44.92
9415;BME280;4746;35.664;139.738;2023-11-19T13:04:19;99685.59;;;19.39;44.46
9415;BME280;4746;35.664;139.738;2023-11-19T13:06:47;99681.78;;;19.24;45.31
9415;BME280;4746;35.664;139.738;2023-11-19T13:09:28;99680.31;;;19.17;45.40
9415;BME280;4746;35.664;139.738;2023-11-19T13:11:56;99678.09;;;19.07;45.91
9415;BME280;4746;35.664;139.738;2023-11-19T13:14:37;99687.81;;;19.02;46.09
9415;BME280;4746;35.664;139.738;2023-11-19T13:17:05;99691.66;;;18.90;46.38
9415;BME280;4746;35.664;139.738;2023-11-19T13:19:32;99684.13;;;18.83;46.84
9415;BME280;4746;35.664;139.738;2023-11-19T13:22:01;99679.25;;;18.74;47.32
9415;BME280;4746;35.664;139.738;2023-11-19T13:24:29;99683.91;;;18.65;47.52
9415;BME280;4746;35.664;139.738;2023-11-19T13:26:57;99688.41;;;18.60;47.53
9415;BME280;4746;35.664;139.738;2023-11-19T13:29:25;99694.59;;;18.56;47.80